Time;durP1;ratioP1;P1;durP2;ratioP2;P2;SDS_P1;SDS_P2;PMS_P1;PMS_P2;Temp;Humidity;BMP_temperature;BMP_pressure;BME280_temperature;BME280_humidity;BME280_pressure;Samples;Min_cycle;Max_cycle;Signal;HPM_P1;HPM_P2
2023/05/26 00:01:47;;;;;;;17.25;3.75;;;9.10;99.90;;;;;;5074714;28;20048;-63
2023/05/26 00:04:16;;;;;;;16.48;4.05;;;9.10;99.90;;;;;;5091449;28;20056;-62
2023/05/26 00:06:44;;;;;;;14.45;4.05;;;9.20;99.90;;;;;;5091400;28;20043;-63
2023/05/26 00:09:10;;;;;;;19.45;3.90;;;9.10;99.90;;;;;;5091930;28;20372;-64
2023/05/26 00:11:37;;;;;;;15.68;3.92;;;9.10;99.90;;;;;;5074732;28;20051;-65
2023/05/26 00:14:03;;;;;;;15.68;3.78;;;9.10;99.90;;;;;;5091030;28;20052;-65
2023/05/26 00:16:29;;;;;;;16.48;4.38;;;9.10;99.90;;;;;;5074532;28;20055;-63
2023/05/26 00:18:55;;;;;;;17.02;4.30;;;9.10;99.90;;;;;;5091449;28;20357;-64
2023/05/26 00:21:22;;;;;;;17.83;3.92;;;9.00;99.90;;;;;;5074644;28;20044;-64
2023/05/26 00:23:48;;;;;;;18.10;3.88;;;9.10;99.90;;;;;;5074044;28;20446;-64
2023/05/26 00:26:14;;;;;;;15.35;3.63;;;9.00;99.90;;;;;;5091052;28;20456;-64
2023/05/26 00:28:40;;;;;;;18.05;5.03;;;9.00;99.90;;;;;;5073962;28;20052;-64
2023/05/26 00:31:07;;;;;;;15.32;4.03;;;9.00;99.90;;;;;;5091277;28;20055;-65
2023/05/26 00:33:33;;;;;;;15.75;3.92;;;9.00;99.90;;;;;;5090854;28;20395;-63
2023/05/26 00:35:59;;;;;;;19.35;4.30;;;9.00;99.90;;;;;;5074069;28;20063;-64
2023/05/26 00:38:25;;;;;;;16.95;3.53;;;9.00;99.90;;;;;;5090597;28;20052;-63
2023/05/26 00:40:52;;;;;;;15.32;3.97;;;8.90;99.90;;;;;;5091222;28;20048;-64
2023/05/26 00:43:18;;;;;;;17.00;3.92;;;8.90;99.90;;;;;;5074506;28;20054;-64
2023/05/26 00:45:44;;;;;;;19.92;4.85;;;8.80;99.90;;;;;;5090870;28;20055;-63
2023/05/26 00:48:10;;;;;;;14.65;4.38;;;8.80;99.90;;;;;;5091639;28;20419;-64
2023/05/26 00:50:38;;;;;;;19.60;4.10;;;8.80;99.90;;;;;;5074478;28;20114;-66
2023/05/26 00:53:04;;;;;;;17.10;4.30;;;8.80;99.90;;;;;;5090831;28;20447;-64
2023/05/26 00:55:32;;;;;;;18.88;4.60;;;8.70;99.90;;;;;;5074181;28;20051;-64
2023/05/26 00:57:59;;;;;;;15.50;3.25;;;8.70;99.90;;;;;;5090853;28;20263;-63
2023/05/26 01:00:26;;;;;;;20.35;4.32;;;8.70;99.90;;;;;;5090948;28;20051;-63
2023/05/26 01:02:57;;;;;;;18.02;3.97;;;8.70;99.90;;;;;;5090682;28;20051;-65
2023/05/26 01:05:23;;;;;;;12.90;3.90;;;8.70;99.90;;;;;;5090592;28;20044;-64
2023/05/26 01:07:50;;;;;;;19.45;4.32;;;8.70;99.90;;;;;;5074531;28;20052;-63
2023/05/26 01:10:16;;;;;;;11.45;3.85;;;8.60;99.90;;;;;;5090446;28;20105;-63
2023/05/26 01:13:00;;;;;;;20.17;4.07;;;8.60;99.90;;;;;;5090626;28;20071;-63
2023/05/26 01:15:35;;;;;;;18.90;5.15;;;8.50;99.90;;;;;;5090468;28;20048;-62
2023/05/26 01:18:13;;;;;;;11.30;3.25;;;8.50;99.90;;;;;;5090639;28;20052;-64
2023/05/26 01:21:01;;;;;;;17.83;4.07;;;8.50;99.90;;;;;;5090498;28;20102;-64
2023/05/26 01:23:49;;;;;;;16.67;4.40;;;8.40;99.90;;;;;;5090631;28;20056;-65
2023/05/26 01:26:53;;;;;;;14.77;4.10;;;8.40;99.90;;;;;;5090489;28;20055;-63
2023/05/26 01:29:22;;;;;;;16.85;4.57;;;8.40;99.90;;;;;;5073652;28;20056;-64
2023/05/26 01:31:48;;;;;;;9.48;3.72;;;8.30;99.90;;;;;;5090427;28;20055;-65
2023/05/26 01:34:14;;;;;;;9.88;3.33;;;8.30;99.90;;;;;;5089995;28;20449;-65
2023/05/26 01:36:41;;;;;;;13.40;4.03;;;8.30;99.90;;;;;;5090276;28;20048;-63
2023/05/26 01:39:08;;;;;;;14.90;4.35;;;8.30;99.90;;;;;;5090338;28;20089;-65
2023/05/26 01:41:46;;;;;;;14.90;4.78;;;8.30;99.90;;;;;;5090785;28;20070;-63
2023/05/26 01:44:25;;;;;;;;;;;8.30;99.90;;;;;;5090578;28;20040;-65
2023/05/26 01:46:52;;;;;;;13.23;3.72;;;8.30;99.90;;;;;;5053830;28;19920;-63
2023/05/26 01:49:21;;;;;;;16.05;4.72;;;8.20;99.90;;;;;;5071151;28;20369;-65
2023/05/26 01:51:51;;;;;;;17.40;4.38;;;8.10;99.90;;;;;;5074142;28;20044;-63
2023/05/26 01:54:20;;;;;;;18.15;4.43;;;8.10;99.90;;;;;;5074583;28;20102;-64
2023/05/26 01:56:48;;;;;;;14.98;3.67;;;8.10;99.90;;;;;;5077107;28;20044;-63
2023/05/26 01:59:16;;;;;;;15.75;3.78;;;8.10;99.90;;;;;;5093681;28;20066;-65
2023/05/26 02:01:42;;;;;;;18.63;4.35;;;8.10;99.90;;;;;;5076759;28;20078;-63
2023/05/26 02:04:11;;;;;;;16.20;3.95;;;8.10;99.90;;;;;;5093229;28;20434;-65
2023/05/26 02:06:38;;;;;;;16.80;4.20;;;8.10;99.90;;;;;;5093131;28;20054;-63
2023/05/26 02:09:05;;;;;;;16.50;3.88;;;8.00;99.90;;;;;;5093995;28;20047;-64
2023/05/26 02:11:32;;;;;;;17.67;4.20;;;8.00;99.90;;;;;;5093702;28;20079;-63
2023/05/26 02:13:58;;;;;;;13.85;3.83;;;8.00;99.90;;;;;;5076779;28;20443;-64
2023/05/26 02:16:26;;;;;;;13.45;4.72;;;8.00;99.90;;;;;;5093400;28;20056;-65
2023/05/26 02:18:52;;;;;;;16.35;4.88;;;8.00;99.90;;;;;;5093801;28;20153;-64
2023/05/26 02:21:18;;;;;;;18.83;4.72;;;7.90;99.90;;;;;;5093334;28;20048;-64
2023/05/26 02:23:45;;;;;;;15.35;3.78;;;7.90;99.90;;;;;;5093334;28;20069;-63
2023/05/26 02:26:11;;;;;;;19.55;4.30;;;8.00;99.90;;;;;;5093060;28;20052;-64
2023/05/26 02:28:38;;;;;;;15.30;4.28;;;7.90;99.90;;;;;;5093090;28;20052;-64
2023/05/26 02:31:05;;;;;;;13.68;4.35;;;7.90;99.90;;;;;;5093208;28;20059;-62
2023/05/26 02:33:32;;;;;;;19.20;3.83;;;7.80;99.90;;;;;;5092901;28;20048;-64
2023/05/26 02:35:58;;;;;;;19.00;4.60;;;7.80;99.90;;;;;;5075602;28;20364;-64
2023/05/26 02:38:24;;;;;;;20.55;4.18;;;7.80;99.90;;;;;;5092756;28;20048;-64
2023/05/26 02:40:50;;;;;;;13.55;3.95;;;7.90;99.90;;;;;;5092927;28;20105;-62
2023/05/26 02:43:17;;;;;;;16.83;4.63;;;7.90;99.90;;;;;;5092601;28;20055;-64
2023/05/26 02:45:43;;;;;;;14.80;3.85;;;7.80;99.90;;;;;;5092396;28;20102;-65
2023/05/26 02:48:10;;;;;;;12.95;3.80;;;7.70;99.90;;;;;;5092955;28;20105;-65
2023/05/26 02:50:36;;;;;;;14.80;3.88;;;7.80;99.90;;;;;;5092323;28;20509;-64
2023/05/26 02:53:02;;;;;;;21.40;4.22;;;7.80;99.90;;;;;;5092478;28;20109;-64
2023/05/26 02:55:30;;;;;;;12.95;3.65;;;7.80;99.90;;;;;;5092111;28;20051;-65
2023/05/26 02:57:56;;;;;;;14.30;4.35;;;7.80;99.90;;;;;;5075780;28;20330;-64
2023/05/26 03:00:23;;;;;;;17.25;4.40;;;7.80;99.90;;;;;;5092282;28;20424;-63
2023/05/26 03:02:49;;;;;;;17.23;4.60;;;7.80;99.90;;;;;;5091873;28;20066;-64
2023/05/26 03:05:15;;;;;;;18.73;5.88;;;7.80;99.90;;;;;;5091834;28;20044;-64
2023/05/26 03:07:41;;;;;;;16.92;4.47;;;7.80;99.90;;;;;;5092062;28;20044;-65
2023/05/26 03:10:08;;;;;;;14.25;4.03;;;7.70;99.90;;;;;;5092215;28;20070;-64
2023/05/26 03:12:35;;;;;;;13.13;4.03;;;7.70;99.90;;;;;;5092047;28;20059;-63
2023/05/26 03:15:02;;;;;;;18.95;4.38;;;7.60;99.90;;;;;;5091632;28;20052;-65
2023/05/26 03:17:28;;;;;;;16.23;4.05;;;7.70;99.90;;;;;;5092343;28;20448;-64
2023/05/26 03:19:55;;;;;;;16.17;4.95;;;7.60;99.90;;;;;;5091584;28;20092;-64
2023/05/26 03:22:21;;;;;;;15.50;4.25;;;7.60;99.90;;;;;;5091888;28;20047;-63
2023/05/26 03:24:48;;;;;;;19.75;4.07;;;7.60;99.90;;;;;;5074409;28;20109;-63
2023/05/26 03:27:15;;;;;;;17.17;4.40;;;7.60;99.90;;;;;;5091876;28;20052;-65
2023/05/26 03:29:41;;;;;;;17.92;3.83;;;7.60;99.90;;;;;;5074551;28;20040;-63
2023/05/26 03:32:08;;;;;;;13.98;4.00;;;7.60;99.90;;;;;;5091806;28;20048;-65
2023/05/26 03:34:39;;;;;;;16.63;4.20;;;7.60;99.90;;;;;;5074533;28;20117;-63
2023/05/26 03:37:06;;;;;;;20.55;4.63;;;7.60;99.90;;;;;;5091714;28;20055;-63
2023/05/26 03:39:32;;;;;;;17.00;4.13;;;7.60;99.90;;;;;;5092094;28;20090;-63
2023/05/26 03:41:59;;;;;;;14.70;4.50;;;7.60;99.90;;;;;;5091646;28;20058;-65
2023/05/26 03:44:26;;;;;;;16.80;4.25;;;7.60;99.90;;;;;;5091046;28;20070;-64
2023/05/26 03:46:52;;;;;;;18.98;4.20;;;7.60;99.90;;;;;;5091340;28;20054;-65
2023/05/26 03:49:19;;;;;;;17.63;4.90;;;7.70;99.90;;;;;;5091575;28;20059;-64
2023/05/26 03:51:46;;;;;;;12.70;3.50;;;7.70;99.90;;;;;;5074416;28;20047;-64
2023/05/26 03:54:12;;;;;;;17.83;4.07;;;7.80;99.90;;;;;;5090998;28;20048;-64
2023/05/26 03:56:38;;;;;;;19.42;4.72;;;7.70;99.90;;;;;;5091192;28;20059;-63
2023/05/26 03:59:05;;;;;;;14.80;4.07;;;7.80;99.90;;;;;;5074264;28;20081;-62
2023/05/26 04:01:32;;;;;;;17.40;4.15;;;7.70;99.90;;;;;;5091465;28;20055;-63
2023/05/26 04:03:59;;;;;;;19.58;4.25;;;7.80;99.90;;;;;;5090709;28;20044;-63
2023/05/26 04:06:27;;;;;;;13.05;3.80;;;7.80;99.90;;;;;;5090936;28;20052;-65
2023/05/26 04:08:53;;;;;;;14.00;3.95;;;7.90;99.90;;;;;;5074204;28;20476;-65
2023/05/26 04:11:21;;;;;;;14.02;4.10;;;7.90;99.90;;;;;;5073944;28;20056;-66
2023/05/26 04:13:47;;;;;;;16.40;4.15;;;8.00;99.90;;;;;;5073787;28;20051;-63
2023/05/26 04:16:14;;;;;;;13.20;4.10;;;8.00;99.90;;;;;;5091000;28;20406;-64
2023/05/26 04:18:40;;;;;;;15.15;4.85;;;8.00;99.90;;;;;;5090619;28;20086;-63
2023/05/26 04:21:08;;;;;;;17.25;4.35;;;8.10;99.90;;;;;;5090887;28;20117;-64
2023/05/26 04:23:34;;;;;;;19.88;4.13;;;8.10;99.90;;;;;;5090581;28;20415;-65
2023/05/26 04:26:00;;;;;;;17.90;4.22;;;8.10;99.90;;;;;;5073905;28;20044;-64
2023/05/26 04:28:27;;;;;;;19.85;4.65;;;8.20;99.90;;;;;;5090545;28;20063;-64
2023/05/26 04:30:53;;;;;;;17.75;4.63;;;8.20;99.90;;;;;;5090724;28;20047;-63
2023/05/26 04:33:22;;;;;;;20.83;6.13;;;8.30;99.90;;;;;;5090141;28;20651;-65
2023/05/26 04:35:48;;;;;;;21.58;5.15;;;8.30;99.90;;;;;;5091250;28;20387;-64
2023/05/26 04:38:15;;;;;;;20.15;4.57;;;8.40;99.90;;;;;;5073974;28;20052;-62
2023/05/26 04:40:42;;;;;;;18.52;4.20;;;8.40;99.90;;;;;;5090502;28;20052;-64
2023/05/26 04:43:10;;;;;;;15.73;4.40;;;8.50;99.90;;;;;;5090291;28;20052;-64
2023/05/26 04:45:37;;;;;;;16.75;5.00;;;8.50;99.90;;;;;;5090225;28;20169;-65
2023/05/26 04:48:05;;;;;;;14.57;4.40;;;8.60;99.90;;;;;;5074486;28;20040;-65
2023/05/26 04:50:32;;;;;;;16.05;4.00;;;8.60;99.90;;;;;;5090426;28;20120;-65
2023/05/26 04:52:59;;;;;;;20.48;4.60;;;8.80;99.90;;;;;;5090363;28;20044;-63
2023/05/26 04:55:25;;;;;;;11.95;3.90;;;9.20;99.90;;;;;;5090600;28;20050;-65
2023/05/26 04:57:52;;;;;;;17.65;4.72;;;9.80;99.90;;;;;;5090571;28;20044;-65
2023/05/26 05:00:18;;;;;;;16.75;4.10;;;10.50;99.90;;;;;;5090539;28;20044;-63
2023/05/26 05:02:45;;;;;;;18.70;4.68;;;10.90;99.90;;;;;;5090605;28;20055;-63
2023/05/26 05:05:11;;;;;;;11.25;3.88;;;11.30;99.90;;;;;;5077632;28;20457;-65
2023/05/26 05:07:38;;;;;;;16.75;4.05;;;11.70;99.90;;;;;;5078631;28;20173;-64
2023/05/26 05:10:05;;;;;;;14.02;4.45;;;12.10;99.90;;;;;;5081119;28;20058;-64
2023/05/26 05:12:32;;;;;;;12.98;3.88;;;12.60;99.90;;;;;;5077469;28;20048;-65
2023/05/26 05:14:58;;;;;;;16.92;4.43;;;13.10;99.90;;;;;;5080233;28;20052;-64
2023/05/26 05:17:24;;;;;;;15.93;4.45;;;13.50;99.90;;;;;;5064265;28;20044;-63
2023/05/26 05:19:51;;;;;;;14.73;3.72;;;13.60;99.90;;;;;;5084717;28;20070;-63
2023/05/26 05:22:17;;;;;;;16.65;4.30;;;13.70;99.90;;;;;;5091035;28;20376;-65
2023/05/26 05:24:43;;;;;;;15.55;4.32;;;13.50;99.90;;;;;;5093277;28;20044;-65
2023/05/26 05:27:09;;;;;;;19.25;5.20;;;13.60;99.90;;;;;;5094407;28;20044;-65
2023/05/26 05:29:36;;;;;;;21.90;4.45;;;13.80;99.90;;;;;;5094223;28;20051;-64
2023/05/26 05:32:02;;;;;;;17.23;4.28;;;14.10;99.90;;;;;;5094103;28;20052;-64
2023/05/26 05:34:28;;;;;;;17.38;4.32;;;14.40;99.90;;;;;;5077009;28;20480;-65
2023/05/26 05:36:54;;;;;;;12.50;3.95;;;14.70;99.90;;;;;;5093917;28;20109;-64
2023/05/26 05:39:21;;;;;;;16.20;5.15;;;14.90;99.90;;;;;;5087666;28;20102;-63
2023/05/26 05:41:47;;;;;;;15.77;4.32;;;15.20;99.90;;;;;;5073250;28;20055;-64
2023/05/26 05:44:13;;;;;;;15.52;3.90;;;15.60;99.90;;;;;;5074002;28;20044;-64
2023/05/26 05:46:39;;;;;;;18.33;4.30;;;15.90;99.90;;;;;;5093576;28;20384;-63
2023/05/26 05:49:06;;;;;;;15.25;4.88;;;16.00;99.90;;;;;;5094792;28;20056;-63
2023/05/26 05:51:32;;;;;;;16.17;4.70;;;16.20;99.90;;;;;;5094871;28;20339;-62
2023/05/26 05:53:59;;;;;;;17.73;4.68;;;16.50;99.90;;;;;;5093711;28;20052;-62
2023/05/26 05:56:26;;;;;;;15.38;3.88;;;16.30;99.90;;;;;;5093733;28;20040;-62
2023/05/26 05:58:52;;;;;;;16.45;3.95;;;16.20;99.90;;;;;;5076874;28;20439;-63
2023/05/26 06:01:19;;;;;;;16.48;4.43;;;16.10;99.90;;;;;;5075882;28;20044;-64
2023/05/26 06:03:46;;;;;;;16.35;3.88;;;16.20;99.90;;;;;;5093499;28;20059;-63
2023/05/26 06:06:12;;;;;;;15.70;4.40;;;16.20;99.90;;;;;;5092777;28;20248;-63
2023/05/26 06:08:38;;;;;;;17.40;4.97;;;16.70;99.90;;;;;;5093689;28;20048;-62
2023/05/26 06:11:04;;;;;;;20.83;5.13;;;16.90;99.90;;;;;;5091594;28;20048;-61
2023/05/26 06:13:31;;;;;;;16.05;4.00;;;16.90;99.90;;;;;;5093165;28;20052;-62
2023/05/26 06:15:57;;;;;;;19.92;4.07;;;17.10;99.90;;;;;;5092892;28;20117;-62
2023/05/26 06:18:23;;;;;;;20.75;4.90;;;17.20;99.90;;;;;;5094099;28;20048;-64
2023/05/26 06:20:50;;;;;;;12.55;3.80;;;16.90;99.90;;;;;;5092650;28;20044;-62
2023/05/26 06:23:17;;;;;;;16.55;4.20;;;17.20;99.90;;;;;;5093201;28;20383;-62
2023/05/26 06:25:43;;;;;;;19.00;3.95;;;17.60;99.90;;;;;;5094011;28;20055;-63
2023/05/26 06:28:10;;;;;;;21.63;4.50;;;18.20;99.90;;;;;;5093823;28;20052;-64
2023/05/26 06:30:36;;;;;;;17.00;4.60;;;18.00;99.90;;;;;;5092719;28;20048;-63
2023/05/26 06:33:02;;;;;;;16.00;4.75;;;17.70;99.90;;;;;;5088973;28;20048;-62
2023/05/26 06:35:28;;;;;;;16.95;4.30;;;17.40;99.90;;;;;;5091283;28;20055;-63
2023/05/26 06:37:55;;;;;;;11.95;3.85;;;17.40;99.90;;;;;;5076626;28;20062;-63
2023/05/26 06:40:22;;;;;;;15.50;4.28;;;17.40;99.90;;;;;;5092638;28;20047;-64
2023/05/26 06:42:48;;;;;;;16.70;4.20;;;17.10;99.90;;;;;;5093356;28;20101;-62
2023/05/26 06:45:14;;;;;;;12.85;3.90;;;17.00;99.90;;;;;;5092681;28;20047;-63
2023/05/26 06:47:40;;;;;;;19.67;4.35;;;17.00;99.90;;;;;;5076347;28;20044;-63
2023/05/26 06:50:07;;;;;;;19.00;5.00;;;16.90;99.90;;;;;;5092650;28;20525;-64
2023/05/26 06:52:34;;;;;;;16.75;4.43;;;16.70;99.90;;;;;;5094424;28;20117;-63
2023/05/26 06:55:00;;;;;;;18.48;4.05;;;16.50;99.90;;;;;;5072399;28;20070;-63
2023/05/26 06:57:26;;;;;;;14.70;3.70;;;16.00;99.90;;;;;;5072830;28;20110;-61
2023/05/26 06:59:52;;;;;;;19.13;4.88;;;15.70;99.90;;;;;;5072146;28;20055;-63
2023/05/26 07:02:19;;;;;;;16.55;4.18;;;15.60;99.90;;;;;;5072735;28;20048;-61
2023/05/26 07:04:45;;;;;;;14.70;3.72;;;15.50;99.90;;;;;;5057943;28;20487;-62
2023/05/26 07:07:12;;;;;;;13.45;3.88;;;15.50;99.90;;;;;;5093496;28;20051;-61
2023/05/26 07:09:38;;;;;;;13.23;4.05;;;15.50;99.90;;;;;;5092318;28;20058;-65
2023/05/26 07:12:06;;;;;;;16.10;4.25;;;15.50;99.90;;;;;;5092909;28;20059;-64
2023/05/26 07:14:32;;;;;;;15.32;4.22;;;15.20;99.90;;;;;;5092573;28;20048;-62
2023/05/26 07:16:58;;;;;;;13.55;4.15;;;15.20;99.90;;;;;;5092482;28;20062;-64
2023/05/26 07:19:25;;;;;;;17.15;4.63;;;15.20;99.90;;;;;;5092214;28;20114;-65
2023/05/26 07:21:51;;;;;;;14.95;4.40;;;15.20;99.90;;;;;;5092702;28;20048;-63
2023/05/26 07:24:17;;;;;;;16.75;4.43;;;15.20;99.90;;;;;;5076243;28;20056;-63
2023/05/26 07:26:43;;;;;;;18.10;4.40;;;15.20;99.90;;;;;;5092541;28;20048;-63
2023/05/26 07:29:09;;;;;;;20.30;5.03;;;15.00;99.90;;;;;;5091986;28;20051;-66
2023/05/26 07:31:36;;;;;;;21.77;5.30;;;15.10;99.90;;;;;;5092200;28;20418;-63
2023/05/26 07:34:02;;;;;;;14.52;4.38;;;15.20;99.90;;;;;;5092526;28;20074;-62
2023/05/26 07:36:28;;;;;;;11.82;3.92;;;15.00;99.90;;;;;;5092165;28;20054;-63
2023/05/26 07:38:55;;;;;;;18.92;4.78;;;14.90;99.90;;;;;;5093566;28;20044;-63
2023/05/26 07:41:21;;;;;;;20.88;4.88;;;14.70;99.90;;;;;;5091714;28;20044;-65
2023/05/26 07:43:47;;;;;;;17.77;4.45;;;14.70;99.90;;;;;;5093343;28;20048;-63
2023/05/26 07:46:14;;;;;;;14.75;3.97;;;14.90;99.90;;;;;;5074227;28;20055;-64
2023/05/26 07:48:40;;;;;;;14.95;4.38;;;15.10;99.90;;;;;;5091699;28;20097;-63
2023/05/26 07:51:06;;;;;;;13.95;3.63;;;15.20;99.90;;;;;;5091529;28;20103;-64
2023/05/26 07:53:34;;;;;;;14.00;4.45;;;15.20;99.90;;;;;;5088844;28;20048;-64
2023/05/26 07:56:01;;;;;;;13.18;3.95;;;15.10;99.90;;;;;;5071273;28;20431;-63
2023/05/26 07:58:27;;;;;;;20.10;4.35;;;15.20;99.90;;;;;;5088271;28;20574;-62
2023/05/26 08:00:54;;;;;;;16.17;4.43;;;15.20;99.90;;;;;;5091141;28;20342;-65
2023/05/26 08:03:20;;;;;;;20.08;4.72;;;15.10;99.90;;;;;;5089312;28;20131;-63
2023/05/26 08:05:47;;;;;;;16.77;4.82;;;14.90;99.90;;;;;;5091283;28;20044;-63
2023/05/26 08:08:13;;;;;;;14.05;3.85;;;14.80;99.90;;;;;;5091794;28;20059;-62
2023/05/26 08:10:39;;;;;;;15.95;4.00;;;14.70;99.90;;;;;;5091342;28;20055;-63
2023/05/26 08:13:06;;;;;;;17.10;4.30;;;14.80;99.90;;;;;;5111772;28;20051;-63
2023/05/26 08:15:32;;;;;;;15.02;4.70;;;14.90;99.90;;;;;;5104001;28;20336;-64
2023/05/26 08:17:58;;;;;;;12.40;3.90;;;15.10;99.90;;;;;;5091820;28;20503;-63
2023/05/26 08:20:25;;;;;;;13.20;4.63;;;15.20;99.90;;;;;;5090766;28;20047;-61
2023/05/26 08:22:51;;;;;;;13.68;3.72;;;15.30;99.90;;;;;;5091653;28;20151;-62
2023/05/26 08:25:17;;;;;;;17.27;4.25;;;15.40;99.90;;;;;;5090659;28;20059;-62
2023/05/26 08:27:44;;;;;;;15.18;4.10;;;15.50;99.90;;;;;;5091224;28;20052;-64
2023/05/26 08:30:10;;;;;;;16.98;5.22;;;15.40;99.90;;;;;;5110381;28;20051;-63
2023/05/26 08:32:36;;;;;;;12.90;3.90;;;15.40;99.90;;;;;;5111892;28;20055;-64
2023/05/26 08:35:03;;;;;;;13.50;3.78;;;15.30;99.90;;;;;;5090201;28;20044;-64
2023/05/26 08:37:30;;;;;;;15.68;4.47;;;15.30;99.90;;;;;;5091010;28;20052;-63
2023/05/26 08:39:57;;;;;;;15.52;4.80;;;15.20;99.90;;;;;;5091387;28;20487;-63
2023/05/26 08:42:30;;;;;;;14.90;4.93;;;15.20;99.90;;;;;;5090785;28;20043;-62
2023/05/26 08:44:59;;;;;;;12.45;4.28;;;15.20;99.90;;;;;;5091768;28;20551;-63
2023/05/26 08:47:27;;;;;;;12.63;3.78;;;15.30;99.90;;;;;;5090791;28;20109;-63
2023/05/26 08:49:56;;;;;;;15.00;4.13;;;15.40;99.90;;;;;;5090560;28;20135;-62
2023/05/26 08:52:23;;;;;;;15.25;3.53;;;15.40;99.90;;;;;;5091087;28;20056;-63
2023/05/26 08:54:50;;;;;;;11.00;3.55;;;15.70;99.90;;;;;;5090742;28;20059;-62
2023/05/26 08:57:18;;;;;;;13.43;3.38;;;15.70;99.90;;;;;;5091059;28;20056;-64
2023/05/26 08:59:48;;;;;;;16.67;4.85;;;15.80;99.90;;;;;;5094174;28;20052;-64
2023/05/26 09:02:15;;;;;;;14.65;3.85;;;15.80;99.90;;;;;;5097728;28;20050;-65
2023/05/26 09:04:41;;;;;;;12.75;3.58;;;15.90;99.90;;;;;;5113991;28;20051;-65
2023/05/26 09:07:09;;;;;;;13.43;3.50;;;16.10;99.90;;;;;;5094918;28;20062;-64
2023/05/26 09:09:35;;;;;;;11.45;3.55;;;16.10;99.90;;;;;;5094850;28;20062;-62
2023/05/26 09:12:08;;;;;;;11.65;3.20;;;16.20;99.90;;;;;;5095140;28;20063;-63
2023/05/26 09:14:35;;;;;;;13.65;2.97;;;16.10;99.90;;;;;;5095265;28;20109;-64
2023/05/26 09:17:02;;;;;;;13.38;4.13;;;16.10;99.70;;;;;;5094492;28;20044;-63
2023/05/26 09:19:29;;;;;;;12.43;3.58;;;16.20;99.40;;;;;;5094334;28;20113;-64
2023/05/26 09:21:55;;;;;;;11.13;3.30;;;16.20;99.00;;;;;;5095959;28;20055;-62
2023/05/26 09:24:25;;;;;;;10.40;3.40;;;16.20;98.50;;;;;;5095002;28;20044;-63
2023/05/26 09:26:51;;;;;;;9.63;3.10;;;16.20;98.60;;;;;;5094250;28;20044;-63
2023/05/26 09:29:17;;;;;;;11.15;3.40;;;16.30;98.70;;;;;;5093809;28;20098;-62
2023/05/26 09:31:48;;;;;;;9.65;3.05;;;16.40;98.70;;;;;;5094565;28;20050;-64
2023/05/26 09:34:21;;;;;;;9.07;2.85;;;16.40;98.20;;;;;;5094171;28;20081;-64
2023/05/26 09:36:49;;;;;;;10.70;3.03;;;16.40;98.20;;;;;;5094208;28;20044;-63
2023/05/26 09:39:15;;;;;;;8.90;2.97;;;16.50;98.20;;;;;;5094098;28;20048;-64
2023/05/26 09:41:44;;;;;;;10.20;2.90;;;16.50;97.80;;;;;;5077697;28;20482;-62
2023/05/26 09:44:11;;;;;;;8.45;2.85;;;16.60;97.80;;;;;;5095212;28;20468;-63
2023/05/26 09:46:38;;;;;;;11.45;3.53;;;16.70;97.90;;;;;;5093851;28;20048;-64
2023/05/26 09:49:13;;;;;;;9.43;3.25;;;16.70;97.70;;;;;;5094299;28;20131;-63
2023/05/26 09:51:48;;;;;;;10.13;2.85;;;16.70;97.40;;;;;;5093926;28;20055;-63
2023/05/26 09:54:15;;;;;;;10.10;3.22;;;16.70;97.20;;;;;;5077593;28;20581;-65
2023/05/26 09:56:53;;;;;;;9.45;3.03;;;16.70;97.10;;;;;;5093689;28;20444;-64
2023/05/26 09:59:26;;;;;;;9.40;3.17;;;16.70;97.10;;;;;;5093474;28;20044;-64
2023/05/26 10:01:53;;;;;;;10.32;3.13;;;16.80;97.10;;;;;;5077744;28;20110;-63
2023/05/26 10:04:24;;;;;;;9.90;2.90;;;16.90;96.80;;;;;;5073865;28;20060;-63
2023/05/26 10:06:52;;;;;;;11.35;3.00;;;17.00;96.60;;;;;;5092169;28;20063;-63
2023/05/26 10:09:22;;;;;;;11.15;3.22;;;17.00;96.60;;;;;;5076060;28;20064;-62
2023/05/26 10:11:50;;;;;;;6.70;2.55;;;17.00;96.30;;;;;;5093922;28;20078;-64
2023/05/26 10:14:17;;;;;;;10.63;3.13;;;17.00;96.80;;;;;;5094087;28;20059;-63
2023/05/26 10:16:44;;;;;;;10.40;3.35;;;17.10;96.80;;;;;;5093477;28;20044;-62
2023/05/26 10:19:10;;;;;;;9.90;3.00;;;17.10;97.00;;;;;;5076564;28;20052;-63
2023/05/26 10:21:41;;;;;;;7.50;2.53;;;17.40;97.00;;;;;;5094150;28;20044;-65
2023/05/26 10:24:41;;;;;;;8.07;2.53;;;17.40;96.00;;;;;;5094295;28;20109;-64
2023/05/26 10:27:23;;;;;;;8.13;2.97;;;17.40;95.80;;;;;;5102229;28;20054;-64
2023/05/26 10:29:58;;;;;;;10.90;3.00;;;17.40;96.20;;;;;;5113538;28;20506;-62
2023/05/26 10:32:56;;;;;;;10.73;3.28;;;17.30;96.30;;;;;;5114233;28;20047;-64
2023/05/26 10:35:27;;;;;;;10.27;2.63;;;17.40;96.20;;;;;;5096665;28;20040;-64
2023/05/26 10:38:11;;;;;;;9.98;2.70;;;17.50;96.00;;;;;;5093428;28;20461;-63
2023/05/26 10:40:41;;;;;;;9.55;2.88;;;17.40;95.80;;;;;;5072832;28;20465;-64
2023/05/26 10:43:18;;;;;;;8.48;3.28;;;17.50;95.80;;;;;;5090046;28;20078;-64
2023/05/26 10:45:54;;;;;;;11.48;3.05;;;17.40;95.70;;;;;;5093485;28;20059;-63
2023/05/26 10:48:24;;;;;;;9.25;3.00;;;17.60;95.20;;;;;;5093084;28;20071;-64
2023/05/26 10:50:58;;;;;;;8.55;2.83;;;17.60;95.30;;;;;;5093611;28;20107;-64
2023/05/26 10:53:56;;;;;;;7.93;2.90;;;17.50;95.10;;;;;;5079058;28;20049;-64
2023/05/26 10:56:40;;;;;;;10.68;3.28;;;17.50;95.20;;;;;;5093093;28;20044;-62
2023/05/26 10:59:07;;;;;;;10.73;3.22;;;17.60;95.20;;;;;;5092891;28;20052;-64
2023/05/26 11:01:33;;;;;;;10.38;3.33;;;17.70;95.40;;;;;;5058531;28;20461;-63
2023/05/26 11:04:10;;;;;;;10.27;2.90;;;17.80;95.60;;;;;;5107817;28;20051;-64
2023/05/26 11:06:45;;;;;;;13.05;3.70;;;18.00;95.60;;;;;;5097594;28;20104;-64
2023/05/26 11:09:12;;;;;;;11.43;3.33;;;18.10;95.50;;;;;;5083577;28;20235;-63
2023/05/26 11:11:50;;;;;;;10.73;3.30;;;18.00;95.30;;;;;;5072834;28;20135;-63
2023/05/26 11:14:26;;;;;;;7.25;2.55;;;17.90;94.50;;;;;;5055999;28;20045;-63
2023/05/26 11:16:58;;;;;;;11.02;3.00;;;17.80;94.80;;;;;;5091029;28;20055;-64
2023/05/26 11:19:34;;;;;;;11.20;3.15;;;17.70;95.10;;;;;;5076166;28;20101;-63
2023/05/26 11:22:08;;;;;;;9.63;2.80;;;17.80;95.50;;;;;;5093795;28;20048;-65
2023/05/26 11:24:34;;;;;;;11.65;3.10;;;17.90;95.50;;;;;;5093824;28;20281;-62
2023/05/26 11:27:02;;;;;;;7.68;2.97;;;17.90;95.70;;;;;;5092225;28;20488;-64
2023/05/26 11:29:30;;;;;;;12.38;3.55;;;18.10;95.80;;;;;;5091690;28;20055;-66
2023/05/26 11:31:56;;;;;;;6.68;2.72;;;18.10;95.50;;;;;;5093418;28;20048;-63
2023/05/26 11:34:24;;;;;;;12.18;3.22;;;18.20;95.50;;;;;;5092385;28;20055;-63
2023/05/26 11:36:53;;;;;;;11.38;3.13;;;18.10;95.70;;;;;;5093157;28;20040;-64
2023/05/26 11:39:21;;;;;;;11.20;3.35;;;18.00;95.60;;;;;;5091851;28;20047;-65
2023/05/26 11:41:48;;;;;;;10.20;3.30;;;18.10;96.00;;;;;;5091982;28;20055;-63
2023/05/26 11:44:15;;;;;;;12.48;3.28;;;18.10;95.90;;;;;;5093455;28;20044;-65
2023/05/26 11:46:43;;;;;;;9.02;3.30;;;18.20;95.80;;;;;;5075425;28;20044;-64
2023/05/26 11:49:19;;;;;;;8.90;3.33;;;18.20;95.90;;;;;;5091893;28;20479;-63
2023/05/26 11:51:47;;;;;;;10.57;3.20;;;18.10;95.50;;;;;;5075525;28;20100;-64
2023/05/26 11:54:14;;;;;;;9.48;3.17;;;18.20;95.50;;;;;;5092562;28;20468;-64
2023/05/26 11:56:41;;;;;;;11.93;3.50;;;18.20;95.60;;;;;;5093115;28;20059;-65
2023/05/26 11:59:08;;;;;;;10.57;4.00;;;18.30;95.60;;;;;;5091535;28;20063;-63
2023/05/26 12:01:35;;;;;;;11.85;3.83;;;18.30;95.30;;;;;;5075384;28;20460;-63
2023/05/26 12:04:04;;;;;;;10.05;3.42;;;18.30;95.40;;;;;;5109367;28;20040;-65
2023/05/26 12:06:31;;;;;;;12.88;3.40;;;18.20;95.50;;;;;;5096994;28;20051;-64
2023/05/26 12:08:59;;;;;;;9.80;3.25;;;18.20;95.80;;;;;;5091661;28;20407;-64
2023/05/26 12:11:29;;;;;;;14.30;4.50;;;18.40;95.90;;;;;;5091861;28;20155;-63
2023/05/26 12:13:56;;;;;;;11.00;3.65;;;18.30;95.60;;;;;;5091949;28;20055;-63
2023/05/26 12:16:27;;;;;;;11.93;3.33;;;18.40;95.70;;;;;;5092552;28;20052;-65
2023/05/26 12:18:56;;;;;;;10.38;2.95;;;18.40;95.60;;;;;;5086421;28;20055;-65
2023/05/26 12:21:25;;;;;;;9.18;3.50;;;18.50;95.60;;;;;;5081089;28;20035;-64
2023/05/26 12:23:53;;;;;;;11.02;3.40;;;18.60;95.60;;;;;;5049145;28;20040;-64
2023/05/26 12:26:29;;;;;;;11.20;3.72;;;18.60;95.60;;;;;;5080757;28;20055;-64
2023/05/26 12:29:09;;;;;;;7.15;3.55;;;18.70;95.60;;;;;;5081494;28;20212;-64
2023/05/26 12:31:52;;;;;;;10.60;3.58;;;18.70;95.30;;;;;;5081982;28;20051;-63
2023/05/26 12:34:21;;;;;;;10.82;3.17;;;18.50;95.70;;;;;;5077754;28;20045;-63
2023/05/26 12:36:49;;;;;;;11.30;3.65;;;18.40;95.20;;;;;;5083381;28;20113;-63
2023/05/26 12:39:16;;;;;;;11.60;3.55;;;18.30;95.50;;;;;;5079338;28;20053;-64
2023/05/26 12:41:45;;;;;;;9.30;3.30;;;18.30;95.90;;;;;;5064725;28;20050;-63
2023/05/26 12:44:13;;;;;;;13.05;3.42;;;18.30;95.80;;;;;;5048797;28;20059;-64
2023/05/26 12:46:41;;;;;;;13.38;3.17;;;18.50;95.80;;;;;;5067021;28;20043;-66
2023/05/26 12:49:08;;;;;;;11.20;3.88;;;18.40;95.70;;;;;;5080882;28;20040;-65